sensor_id;sensor_type;location;lat;lon;timestamp;temperature;humidity
23291;DHT22;11814;44.686;10.842;2022-10-15T00:00:45;16.30;99.90
23291;DHT22;11814;44.686;10.842;2022-10-15T00:03:11;16.20;99.90
23291;DHT22;11814;44.686;10.842;2022-10-15T00:05:38;16.20;99.90
23291;DHT22;11814;44.686;10.842;2022-10-15T00:08:04;16.20;99.90
23291;DHT22;11814;44.686;10.842;2022-10-15T00:10:30;16.10;99.90
23291;DHT22;11814;44.686;10.842;2022-10-15T00:12:56;16.10;99.90
23291;DHT22;11814;44.686;10.842;2022-10-15T00:15:22;16.00;99.90
23291;DHT22;11814;44.686;10.842;2022-10-15T00:17:47;16.00;99.90
23291;DHT22;11814;44.686;10.842;2022-10-15T00:20:14;16.00;99.90
23291;DHT22;11814;44.686;10.842;2022-10-15T00:22:39;15.90;99.90
23291;DHT22;11814;44.686;10.842;2022-10-15T00:25:06;15.90;99.90
23291;DHT22;11814;44.686;10.842;2022-10-15T00:27:33;15.90;99.90
23291;DHT22;11814;44.686;10.842;2022-10-15T00:29:59;15.80;99.90
23291;DHT22;11814;44.686;10.842;2022-10-15T00:32:28;15.80;99.90
23291;DHT22;11814;44.686;10.842;2022-10-15T00:34:54;15.80;99.90
23291;DHT22;11814;44.686;10.842;2022-10-15T00:37:20;15.90;99.90
23291;DHT22;11814;44.686;10.842;2022-10-15T00:39:47;15.80;99.90
23291;DHT22;11814;44.686;10.842;2022-10-15T00:42:12;15.70;99.90
23291;DHT22;11814;44.686;10.842;2022-10-15T00:44:56;15.70;99.90
23291;DHT22;11814;44.686;10.842;2022-10-15T00:47:28;15.70;99.90
23291;DHT22;11814;44.686;10.842;2022-10-15T00:50:06;15.70;99.90
23291;DHT22;11814;44.686;10.842;2022-10-15T00:53:16;15.70;99.90
23291;DHT22;11814;44.686;10.842;2022-10-15T00:55:40;15.80;99.90
23291;DHT22;11814;44.686;10.842;2022-10-15T00:58:15;15.70;99.90
23291;DHT22;11814;44.686;10.842;2022-10-15T01:00:42;15.70;99.90
23291;DHT22;11814;44.686;10.842;2022-10-15T01:03:08;15.70;99.90
23291;DHT22;11814;44.686;10.842;2022-10-15T01:05:35;15.70;99.90
23291;DHT22;11814;44.686;10.842;2022-10-15T01:08:01;15.80;99.90
23291;DHT22;11814;44.686;10.842;2022-10-15T01:10:33;15.80;99.90
23291;DHT22;11814;44.686;10.842;2022-10-15T01:13:37;15.80;99.90
23291;DHT22;11814;44.686;10.842;2022-10-15T01:27:08;15.80;99.90
23291;DHT22;11814;44.686;10.842;2022-10-15T01:32:50;15.80;99.90
23291;DHT22;11814;44.686;10.842;2022-10-15T01:35:45;15.70;99.90
23291;DHT22;11814;44.686;10.842;2022-10-15T01:43:25;15.70;99.90
23291;DHT22;11814;44.686;10.842;2022-10-15T01:45:58;15.70;99.90
23291;DHT22;11814;44.686;10.842;2022-10-15T01:48:27;15.70;99.90
23291;DHT22;11814;44.686;10.842;2022-10-15T01:50:59;15.80;99.90
23291;DHT22;11814;44.686;10.842;2022-10-15T01:53:26;15.80;99.90
23291;DHT22;11814;44.686;10.842;2022-10-15T01:56:02;15.70;99.90
23291;DHT22;11814;44.686;10.842;2022-10-15T01:58:29;15.80;99.90
23291;DHT22;11814;44.686;10.842;2022-10-15T02:00:56;15.70;99.90
23291;DHT22;11814;44.686;10.842;2022-10-15T02:03:23;15.70;99.90
23291;DHT22;11814;44.686;10.842;2022-10-15T02:05:58;15.70;99.90
23291;DHT22;11814;44.686;10.842;2022-10-15T02:08:44;15.70;99.90
23291;DHT22;11814;44.686;10.842;2022-10-15T02:11:15;15.70;99.90
23291;DHT22;11814;44.686;10.842;2022-10-15T02:13:58;15.60;99.90
23291;DHT22;11814;44.686;10.842;2022-10-15T02:21:49;15.50;99.90
23291;DHT22;11814;44.686;10.842;2022-10-15T02:24:27;15.50;99.90
23291;DHT22;11814;44.686;10.842;2022-10-15T02:26:58;15.50;99.90
23291;DHT22;11814;44.686;10.842;2022-10-15T02:29:30;15.50;99.90
23291;DHT22;11814;44.686;10.842;2022-10-15T02:31:58;15.50;99.90
23291;DHT22;11814;44.686;10.842;2022-10-15T02:34:26;15.50;99.90
23291;DHT22;11814;44.686;10.842;2022-10-15T02:36:53;15.50;99.90
23291;DHT22;11814;44.686;10.842;2022-10-15T02:39:23;15.50;99.90
23291;DHT22;11814;44.686;10.842;2022-10-15T02:41:50;15.50;99.90
23291;DHT22;11814;44.686;10.842;2022-10-15T02:44:16;15.50;99.90
23291;DHT22;11814;44.686;10.842;2022-10-15T02:46:42;15.50;99.90
23291;DHT22;11814;44.686;10.842;2022-10-15T02:49:08;15.50;99.90
23291;DHT22;11814;44.686;10.842;2022-10-15T02:51:35;15.50;99.90
23291;DHT22;11814;44.686;10.842;2022-10-15T02:54:03;15.50;99.90
23291;DHT22;11814;44.686;10.842;2022-10-15T02:56:29;15.50;99.90
23291;DHT22;11814;44.686;10.842;2022-10-15T02:58:55;15.50;99.90
23291;DHT22;11814;44.686;10.842;2022-10-15T03:01:21;15.50;99.90
23291;DHT22;11814;44.686;10.842;2022-10-15T03:03:46;15.50;99.90
23291;DHT22;11814;44.686;10.842;2022-10-15T03:06:13;15.50;99.90
23291;DHT22;11814;44.686;10.842;2022-10-15T03:08:38;15.50;99.90
23291;DHT22;11814;44.686;10.842;2022-10-15T03:11:04;15.50;99.90
23291;DHT22;11814;44.686;10.842;2022-10-15T03:13:30;15.50;99.90
23291;DHT22;11814;44.686;10.842;2022-10-15T03:15:55;15.50;99.90
23291;DHT22;11814;44.686;10.842;2022-10-15T03:18:21;15.50;99.90
23291;DHT22;11814;44.686;10.842;2022-10-15T03:20:55;15.50;99.90
23291;DHT22;11814;44.686;10.842;2022-10-15T03:23:21;15.50;99.90
23291;DHT22;11814;44.686;10.842;2022-10-15T03:25:47;15.40;99.90
23291;DHT22;11814;44.686;10.842;2022-10-15T03:28:13;15.30;99.90
23291;DHT22;11814;44.686;10.842;2022-10-15T03:30:38;15.20;99.90
23291;DHT22;11814;44.686;10.842;2022-10-15T03:33:04;15.10;99.90
23291;DHT22;11814;44.686;10.842;2022-10-15T03:35:30;15.10;99.90
23291;DHT22;11814;44.686;10.842;2022-10-15T03:37:55;15.10;99.90
23291;DHT22;11814;44.686;10.842;2022-10-15T03:40:21;15.00;99.90
23291;DHT22;11814;44.686;10.842;2022-10-15T03:42:50;15.00;99.90
23291;DHT22;11814;44.686;10.842;2022-10-15T03:45:17;15.00;99.90
23291;DHT22;11814;44.686;10.842;2022-10-15T03:47:43;14.90;99.90
23291;DHT22;11814;44.686;10.842;2022-10-15T03:50:09;14.90;99.90
23291;DHT22;11814;44.686;10.842;2022-10-15T03:52:36;14.90;99.90
23291;DHT22;11814;44.686;10.842;2022-10-15T03:55:02;14.80;99.90
23291;DHT22;11814;44.686;10.842;2022-10-15T03:57:28;14.80;99.90
23291;DHT22;11814;44.686;10.842;2022-10-15T03:59:54;14.80;99.90
23291;DHT22;11814;44.686;10.842;2022-10-15T04:02:20;14.80;99.90
23291;DHT22;11814;44.686;10.842;2022-10-15T04:04:45;14.80;99.90
23291;DHT22;11814;44.686;10.842;2022-10-15T04:07:11;14.70;99.90
23291;DHT22;11814;44.686;10.842;2022-10-15T04:09:37;14.80;99.90
23291;DHT22;11814;44.686;10.842;2022-10-15T04:12:03;14.80;99.90
23291;DHT22;11814;44.686;10.842;2022-10-15T04:14:29;14.80;99.90
23291;DHT22;11814;44.686;10.842;2022-10-15T04:16:55;14.80;99.90
23291;DHT22;11814;44.686;10.842;2022-10-15T04:19:23;14.80;99.90
23291;DHT22;11814;44.686;10.842;2022-10-15T04:21:49;14.80;99.90
23291;DHT22;11814;44.686;10.842;2022-10-15T04:24:15;14.70;99.90
23291;DHT22;11814;44.686;10.842;2022-10-15T04:26:40;14.80;99.90
23291;DHT22;11814;44.686;10.842;2022-10-15T04:29:06;14.70;99.90
23291;DHT22;11814;44.686;10.842;2022-10-15T04:31:32;14.70;99.90
23291;DHT22;11814;44.686;10.842;2022-10-15T04:33:58;14.60;99.90
23291;DHT22;11814;44.686;10.842;2022-10-15T04:36:24;14.60;99.90
23291;DHT22;11814;44.686;10.842;2022-10-15T04:38:51;14.60;99.90
23291;DHT22;11814;44.686;10.842;2022-10-15T04:41:16;14.60;99.90
23291;DHT22;11814;44.686;10.842;2022-10-15T04:43:42;14.70;99.90
23291;DHT22;11814;44.686;10.842;2022-10-15T04:46:08;14.70;99.90
23291;DHT22;11814;44.686;10.842;2022-10-15T04:48:36;14.70;99.90
23291;DHT22;11814;44.686;10.842;2022-10-15T04:51:20;14.70;99.90
23291;DHT22;11814;44.686;10.842;2022-10-15T04:53:46;14.70;99.90
23291;DHT22;11814;44.686;10.842;2022-10-15T04:56:15;14.70;99.90
23291;DHT22;11814;44.686;10.842;2022-10-15T04:58:43;14.70;99.90
23291;DHT22;11814;44.686;10.842;2022-10-15T05:01:12;14.70;99.90
23291;DHT22;11814;44.686;10.842;2022-10-15T05:03:40;14.70;99.90
23291;DHT22;11814;44.686;10.842;2022-10-15T05:06:12;14.70;99.90
23291;DHT22;11814;44.686;10.842;2022-10-15T05:08:38;14.60;99.90
23291;DHT22;11814;44.686;10.842;2022-10-15T05:11:11;14.60;99.90
23291;DHT22;11814;44.686;10.842;2022-10-15T05:13:37;14.50;99.90
23291;DHT22;11814;44.686;10.842;2022-10-15T05:16:19;14.50;99.90
23291;DHT22;11814;44.686;10.842;2022-10-15T05:18:48;14.50;99.90
23291;DHT22;11814;44.686;10.842;2022-10-15T05:21:15;14.50;99.90
23291;DHT22;11814;44.686;10.842;2022-10-15T05:23:41;14.50;99.90
23291;DHT22;11814;44.686;10.842;2022-10-15T05:26:11;14.50;99.90
23291;DHT22;11814;44.686;10.842;2022-10-15T05:28:37;14.50;99.90
23291;DHT22;11814;44.686;10.842;2022-10-15T05:31:08;14.50;99.90
23291;DHT22;11814;44.686;10.842;2022-10-15T05:33:34;14.50;99.90
23291;DHT22;11814;44.686;10.842;2022-10-15T05:36:40;14.40;99.90
23291;DHT22;11814;44.686;10.842;2022-10-15T05:39:02;14.40;99.90
23291;DHT22;11814;44.686;10.842;2022-10-15T05:41:28;14.40;99.90
23291;DHT22;11814;44.686;10.842;2022-10-15T05:43:56;14.40;99.90
23291;DHT22;11814;44.686;10.842;2022-10-15T05:46:23;14.40;99.90
23291;DHT22;11814;44.686;10.842;2022-10-15T05:48:54;14.40;99.90
23291;DHT22;11814;44.686;10.842;2022-10-15T05:51:20;14.40;99.90
23291;DHT22;11814;44.686;10.842;2022-10-15T05:53:46;14.40;99.90
23291;DHT22;11814;44.686;10.842;2022-10-15T05:56:13;14.40;99.90
23291;DHT22;11814;44.686;10.842;2022-10-15T05:58:39;14.50;99.90
23291;DHT22;11814;44.686;10.842;2022-10-15T06:01:07;14.40;99.90
23291;DHT22;11814;44.686;10.842;2022-10-15T06:03:34;14.40;99.90
23291;DHT22;11814;44.686;10.842;2022-10-15T06:06:00;14.50;99.90
23291;DHT22;11814;44.686;10.842;2022-10-15T06:08:28;14.50;99.90
23291;DHT22;11814;44.686;10.842;2022-10-15T06:10:54;14.50;99.90
23291;DHT22;11814;44.686;10.842;2022-10-15T06:13:21;14.60;99.90
23291;DHT22;11814;44.686;10.842;2022-10-15T06:15:47;14.80;99.90
23291;DHT22;11814;44.686;10.842;2022-10-15T06:18:13;14.90;99.90
23291;DHT22;11814;44.686;10.842;2022-10-15T06:20:44;14.90;99.90
23291;DHT22;11814;44.686;10.842;2022-10-15T06:23:15;14.90;99.90
23291;DHT22;11814;44.686;10.842;2022-10-15T06:25:40;15.00;99.90
23291;DHT22;11814;44.686;10.842;2022-10-15T06:28:06;15.00;99.90
23291;DHT22;11814;44.686;10.842;2022-10-15T06:30:34;15.00;99.90
23291;DHT22;11814;44.686;10.842;2022-10-15T06:32:59;15.00;99.90
23291;DHT22;11814;44.686;10.842;2022-10-15T06:35:25;15.10;99.90
23291;DHT22;11814;44.686;10.842;2022-10-15T06:37:54;15.20;99.90
23291;DHT22;11814;44.686;10.842;2022-10-15T06:40:20;15.30;99.90
23291;DHT22;11814;44.686;10.842;2022-10-15T06:42:46;15.50;99.90
23291;DHT22;11814;44.686;10.842;2022-10-15T06:45:12;15.50;99.90
23291;DHT22;11814;44.686;10.842;2022-10-15T06:47:41;15.70;99.90
23291;DHT22;11814;44.686;10.842;2022-10-15T06:50:07;15.70;99.90
23291;DHT22;11814;44.686;10.842;2022-10-15T06:52:33;15.80;99.90
23291;DHT22;11814;44.686;10.842;2022-10-15T06:54:59;15.90;99.90
23291;DHT22;11814;44.686;10.842;2022-10-15T06:57:26;16.00;99.90
23291;DHT22;11814;44.686;10.842;2022-10-15T06:59:52;16.00;99.90
23291;DHT22;11814;44.686;10.842;2022-10-15T07:02:19;16.10;99.90
23291;DHT22;11814;44.686;10.842;2022-10-15T07:04:47;16.20;99.90
23291;DHT22;11814;44.686;10.842;2022-10-15T07:07:14;16.30;99.90
23291;DHT22;11814;44.686;10.842;2022-10-15T07:09:39;16.40;99.90
23291;DHT22;11814;44.686;10.842;2022-10-15T07:12:05;16.50;99.90
23291;DHT22;11814;44.686;10.842;2022-10-15T07:14:31;16.60;99.90
23291;DHT22;11814;44.686;10.842;2022-10-15T07:16:57;16.70;99.90
23291;DHT22;11814;44.686;10.842;2022-10-15T07:19:24;16.80;99.90
23291;DHT22;11814;44.686;10.842;2022-10-15T07:21:50;16.90;99.90
23291;DHT22;11814;44.686;10.842;2022-10-15T07:24:15;17.00;99.90
23291;DHT22;11814;44.686;10.842;2022-10-15T07:26:41;17.10;99.90
23291;DHT22;11814;44.686;10.842;2022-10-15T07:29:07;17.30;99.90
23291;DHT22;11814;44.686;10.842;2022-10-15T07:31:33;17.50;99.90
23291;DHT22;11814;44.686;10.842;2022-10-15T07:33:59;17.60;99.90
23291;DHT22;11814;44.686;10.842;2022-10-15T07:36:25;17.70;99.90
23291;DHT22;11814;44.686;10.842;2022-10-15T07:38:51;17.80;99.90
23291;DHT22;11814;44.686;10.842;2022-10-15T07:41:17;17.90;99.90
23291;DHT22;11814;44.686;10.842;2022-10-15T07:43:43;18.10;99.90
23291;DHT22;11814;44.686;10.842;2022-10-15T07:46:10;18.30;99.90
23291;DHT22;11814;44.686;10.842;2022-10-15T07:48:35;18.40;99.90
23291;DHT22;11814;44.686;10.842;2022-10-15T07:51:03;18.70;99.90
23291;DHT22;11814;44.686;10.842;2022-10-15T07:53:30;18.90;99.90
23291;DHT22;11814;44.686;10.842;2022-10-15T07:56:00;19.30;99.90
23291;DHT22;11814;44.686;10.842;2022-10-15T07:58:26;19.60;99.90
23291;DHT22;11814;44.686;10.842;2022-10-15T08:00:55;19.90;99.90
23291;DHT22;11814;44.686;10.842;2022-10-15T08:03:23;20.10;99.90
23291;DHT22;11814;44.686;10.842;2022-10-15T08:05:49;20.40;99.90
23291;DHT22;11814;44.686;10.842;2022-10-15T08:08:18;20.50;99.90
23291;DHT22;11814;44.686;10.842;2022-10-15T08:10:45;20.60;99.90
23291;DHT22;11814;44.686;10.842;2022-10-15T08:13:11;20.70;99.90
23291;DHT22;11814;44.686;10.842;2022-10-15T08:15:40;20.70;99.90
23291;DHT22;11814;44.686;10.842;2022-10-15T08:18:07;20.70;99.90
23291;DHT22;11814;44.686;10.842;2022-10-15T08:20:33;20.70;99.90
23291;DHT22;11814;44.686;10.842;2022-10-15T08:22:58;20.70;99.70
23291;DHT22;11814;44.686;10.842;2022-10-15T08:25:24;20.70;99.50
23291;DHT22;11814;44.686;10.842;2022-10-15T08:27:52;20.60;99.20
23291;DHT22;11814;44.686;10.842;2022-10-15T08:30:18;20.60;99.10
23291;DHT22;11814;44.686;10.842;2022-10-15T08:32:44;20.70;99.00
23291;DHT22;11814;44.686;10.842;2022-10-15T08:35:10;20.70;98.90
23291;DHT22;11814;44.686;10.842;2022-10-15T08:37:36;20.70;98.70
23291;DHT22;11814;44.686;10.842;2022-10-15T08:40:03;20.80;98.70
23291;DHT22;11814;44.686;10.842;2022-10-15T08:42:38;20.90;98.60
23291;DHT22;11814;44.686;10.842;2022-10-15T08:45:13;21.10;98.40
23291;DHT22;11814;44.686;10.842;2022-10-15T08:48:01;21.50;98.40
23291;DHT22;11814;44.686;10.842;2022-10-15T08:50:35;22.10;97.20
23291;DHT22;11814;44.686;10.842;2022-10-15T08:53:02;22.70;96.20
23291;DHT22;11814;44.686;10.842;2022-10-15T08:55:34;23.20;95.20
23291;DHT22;11814;44.686;10.842;2022-10-15T08:58:52;23.80;93.40
23291;DHT22;11814;44.686;10.842;2022-10-15T09:01:31;24.50;90.60
23291;DHT22;11814;44.686;10.842;2022-10-15T09:06:36;24.90;85.80
23291;DHT22;11814;44.686;10.842;2022-10-15T09:09:21;25.10;85.00
23291;DHT22;11814;44.686;10.842;2022-10-15T09:14:41;25.80;81.20
23291;DHT22;11814;44.686;10.842;2022-10-15T09:17:22;25.80;78.90
23291;DHT22;11814;44.686;10.842;2022-10-15T09:19:56;25.50;78.00
23291;DHT22;11814;44.686;10.842;2022-10-15T09:22:31;25.10;78.20
23291;DHT22;11814;44.686;10.842;2022-10-15T09:24:58;24.70;78.60
23291;DHT22;11814;44.686;10.842;2022-10-15T09:27:34;24.40;79.40
23291;DHT22;11814;44.686;10.842;2022-10-15T09:39:03;23.80;81.70
23291;DHT22;11814;44.686;10.842;2022-10-15T09:44:12;23.80;82.60
23291;DHT22;11814;44.686;10.842;2022-10-15T09:46:46;23.90;82.70
23291;DHT22;11814;44.686;10.842;2022-10-15T09:49:26;23.90;82.30
23291;DHT22;11814;44.686;10.842;2022-10-15T09:52:09;24.00;82.20
23291;DHT22;11814;44.686;10.842;2022-10-15T09:57:09;24.00;81.40
23291;DHT22;11814;44.686;10.842;2022-10-15T09:59:36;24.00;81.50
23291;DHT22;11814;44.686;10.842;2022-10-15T10:04:31;24.10;81.00
23291;DHT22;11814;44.686;10.842;2022-10-15T10:07:04;24.20;80.80
23291;DHT22;11814;44.686;10.842;2022-10-15T10:09:35;24.20;80.70
23291;DHT22;11814;44.686;10.842;2022-10-15T10:12:06;24.20;80.60
23291;DHT22;11814;44.686;10.842;2022-10-15T10:14:37;24.10;81.00
23291;DHT22;11814;44.686;10.842;2022-10-15T10:17:17;24.00;81.40
23291;DHT22;11814;44.686;10.842;2022-10-15T10:20:00;24.10;81.90
23291;DHT22;11814;44.686;10.842;2022-10-15T10:22:27;24.30;82.00
23291;DHT22;11814;44.686;10.842;2022-10-15T10:24:53;24.30;81.70
23291;DHT22;11814;44.686;10.842;2022-10-15T10:27:28;24.20;81.30
23291;DHT22;11814;44.686;10.842;2022-10-15T10:30:06;24.20;81.20
23291;DHT22;11814;44.686;10.842;2022-10-15T10:32:33;24.20;80.90
23291;DHT22;11814;44.686;10.842;2022-10-15T10:35:01;24.20;80.80
23291;DHT22;11814;44.686;10.842;2022-10-15T10:37:27;24.30;80.70
23291;DHT22;11814;44.686;10.842;2022-10-15T10:39:58;24.50;80.70
23291;DHT22;11814;44.686;10.842;2022-10-15T10:42:33;24.80;80.20
23291;DHT22;11814;44.686;10.842;2022-10-15T10:45:20;25.10;79.00
23291;DHT22;11814;44.686;10.842;2022-10-15T10:47:46;25.40;77.60
23291;DHT22;11814;44.686;10.842;2022-10-15T10:50:33;25.50;77.30
23291;DHT22;11814;44.686;10.842;2022-10-15T10:53:21;25.70;76.40
23291;DHT22;11814;44.686;10.842;2022-10-15T10:55:48;25.70;76.00
23291;DHT22;11814;44.686;10.842;2022-10-15T10:58:19;25.60;75.70
23291;DHT22;11814;44.686;10.842;2022-10-15T11:00:51;25.60;75.50
23291;DHT22;11814;44.686;10.842;2022-10-15T11:11:57;25.50;74.70
23291;DHT22;11814;44.686;10.842;2022-10-15T11:39:48;25.20;71.40
23291;DHT22;11814;44.686;10.842;2022-10-15T11:47:45;25.30;71.70
23291;DHT22;11814;44.686;10.842;2022-10-15T11:50:18;25.30;71.70
23291;DHT22;11814;44.686;10.842;2022-10-15T12:01:14;25.20;71.80
23291;DHT22;11814;44.686;10.842;2022-10-15T12:04:16;25.30;72.00
23291;DHT22;11814;44.686;10.842;2022-10-15T12:06:47;25.30;72.10
23291;DHT22;11814;44.686;10.842;2022-10-15T12:09:19;25.30;72.10
23291;DHT22;11814;44.686;10.842;2022-10-15T12:12:16;25.30;72.00
23291;DHT22;11814;44.686;10.842;2022-10-15T12:14:50;25.30;71.90
23291;DHT22;11814;44.686;10.842;2022-10-15T12:20:15;25.30;72.00
23291;DHT22;11814;44.686;10.842;2022-10-15T12:28:17;25.30;71.80
23291;DHT22;11814;44.686;10.842;2022-10-15T12:30:56;25.20;71.90
23291;DHT22;11814;44.686;10.842;2022-10-15T12:33:24;25.20;71.90
23291;DHT22;11814;44.686;10.842;2022-10-15T12:35:58;25.20;72.00
23291;DHT22;11814;44.686;10.842;2022-10-15T12:40:55;25.20;71.90
23291;DHT22;11814;44.686;10.842;2022-10-15T12:43:22;25.20;72.00
23291;DHT22;11814;44.686;10.842;2022-10-15T12:45:52;25.20;72.10
23291;DHT22;11814;44.686;10.842;2022-10-15T12:53:52;25.10;72.10
23291;DHT22;11814;44.686;10.842;2022-10-15T12:56:37;25.10;72.10
23291;DHT22;11814;44.686;10.842;2022-10-15T13:04:54;25.10;71.90
23291;DHT22;11814;44.686;10.842;2022-10-15T13:07:19;25.10;72.00
23291;DHT22;11814;44.686;10.842;2022-10-15T13:09:45;25.00;72.00
23291;DHT22;11814;44.686;10.842;2022-10-15T13:12:21;25.00;71.90
23291;DHT22;11814;44.686;10.842;2022-10-15T13:14:53;24.90;72.10
23291;DHT22;11814;44.686;10.842;2022-10-15T13:17:21;24.90;72.00
23291;DHT22;11814;44.686;10.842;2022-10-15T13:19:59;24.80;71.90
23291;DHT22;11814;44.686;10.842;2022-10-15T13:22:30;24.80;72.10
23291;DHT22;11814;44.686;10.842;2022-10-15T13:24:56;24.80;72.90
23291;DHT22;11814;44.686;10.842;2022-10-15T13:27:34;24.90;72.50
23291;DHT22;11814;44.686;10.842;2022-10-15T13:32:44;24.80;72.30
23291;DHT22;11814;44.686;10.842;2022-10-15T13:35:15;24.80;72.40
23291;DHT22;11814;44.686;10.842;2022-10-15T13:37:42;24.80;72.50
23291;DHT22;11814;44.686;10.842;2022-10-15T13:40:19;24.70;72.50
23291;DHT22;11814;44.686;10.842;2022-10-15T13:43:14;24.60;72.60
23291;DHT22;11814;44.686;10.842;2022-10-15T13:46:02;24.60;72.80
23291;DHT22;11814;44.686;10.842;2022-10-15T13:48:31;24.60;72.90
23291;DHT22;11814;44.686;10.842;2022-10-15T13:51:04;24.60;72.90
23291;DHT22;11814;44.686;10.842;2022-10-15T13:53:39;24.60;72.90
23291;DHT22;11814;44.686;10.842;2022-10-15T13:56:29;24.60;73.00
23291;DHT22;11814;44.686;10.842;2022-10-15T13:58:58;24.60;73.00
23291;DHT22;11814;44.686;10.842;2022-10-15T14:01:26;24.60;72.90
23291;DHT22;11814;44.686;10.842;2022-10-15T14:03:57;24.60;72.40
23291;DHT22;11814;44.686;10.842;2022-10-15T14:06:32;24.60;71.70
23291;DHT22;11814;44.686;10.842;2022-10-15T14:09:19;24.60;70.90
23291;DHT22;11814;44.686;10.842;2022-10-15T14:11:47;24.60;70.30
23291;DHT22;11814;44.686;10.842;2022-10-15T14:14:38;24.60;69.80
23291;DHT22;11814;44.686;10.842;2022-10-15T14:17:26;24.60;69.50
23291;DHT22;11814;44.686;10.842;2022-10-15T14:20:02;24.60;69.30
23291;DHT22;11814;44.686;10.842;2022-10-15T14:22:29;24.60;69.40
23291;DHT22;11814;44.686;10.842;2022-10-15T14:24:55;24.70;69.70
23291;DHT22;11814;44.686;10.842;2022-10-15T14:27:26;24.60;69.80
23291;DHT22;11814;44.686;10.842;2022-10-15T14:29:58;24.60;70.10
23291;DHT22;11814;44.686;10.842;2022-10-15T14:34:54;24.60;70.20
23291;DHT22;11814;44.686;10.842;2022-10-15T14:47:36;24.50;70.50
23291;DHT22;11814;44.686;10.842;2022-10-15T14:50:03;24.50;70.60
23291;DHT22;11814;44.686;10.842;2022-10-15T14:52:30;24.50;70.70
23291;DHT22;11814;44.686;10.842;2022-10-15T14:57:24;24.50;70.70
23291;DHT22;11814;44.686;10.842;2022-10-15T14:59:52;24.50;70.70
23291;DHT22;11814;44.686;10.842;2022-10-15T15:02:24;24.40;70.90
23291;DHT22;11814;44.686;10.842;2022-10-15T15:07:39;24.30;71.20
23291;DHT22;11814;44.686;10.842;2022-10-15T15:10:07;24.30;71.40
23291;DHT22;11814;44.686;10.842;2022-10-15T15:12:34;24.20;71.60
23291;DHT22;11814;44.686;10.842;2022-10-15T15:15:00;24.20;71.80
23291;DHT22;11814;44.686;10.842;2022-10-15T15:17:28;24.20;72.00
23291;DHT22;11814;44.686;10.842;2022-10-15T15:19:55;24.10;72.20
23291;DHT22;11814;44.686;10.842;2022-10-15T15:22:29;24.10;72.40
23291;DHT22;11814;44.686;10.842;2022-10-15T15:24:57;24.10;72.60
23291;DHT22;11814;44.686;10.842;2022-10-15T15:27:26;24.10;72.60
23291;DHT22;11814;44.686;10.842;2022-10-15T15:29:53;24.10;72.70
23291;DHT22;11814;44.686;10.842;2022-10-15T15:32:20;24.10;72.90
23291;DHT22;11814;44.686;10.842;2022-10-15T15:34:47;24.00;72.80
23291;DHT22;11814;44.686;10.842;2022-10-15T15:37:15;24.00;72.80
23291;DHT22;11814;44.686;10.842;2022-10-15T15:39:42;24.00;72.80
23291;DHT22;11814;44.686;10.842;2022-10-15T15:42:14;24.00;72.80
23291;DHT22;11814;44.686;10.842;2022-10-15T15:44:40;24.00;72.90
23291;DHT22;11814;44.686;10.842;2022-10-15T15:47:06;23.90;72.80
23291;DHT22;11814;44.686;10.842;2022-10-15T15:49:32;23.90;72.90
23291;DHT22;11814;44.686;10.842;2022-10-15T15:51:58;23.90;73.20
23291;DHT22;11814;44.686;10.842;2022-10-15T15:54:23;23.90;73.30
23291;DHT22;11814;44.686;10.842;2022-10-15T15:56:49;23.90;73.40
23291;DHT22;11814;44.686;10.842;2022-10-15T15:59:15;23.90;73.60
23291;DHT22;11814;44.686;10.842;2022-10-15T16:01:44;23.80;73.90
23291;DHT22;11814;44.686;10.842;2022-10-15T16:04:11;23.80;74.10
23291;DHT22;11814;44.686;10.842;2022-10-15T16:06:40;23.80;74.10
23291;DHT22;11814;44.686;10.842;2022-10-15T16:09:07;23.70;74.10
23291;DHT22;11814;44.686;10.842;2022-10-15T16:11:33;23.60;74.20
23291;DHT22;11814;44.686;10.842;2022-10-15T16:14:01;23.60;74.50
23291;DHT22;11814;44.686;10.842;2022-10-15T16:16:26;23.50;74.80
23291;DHT22;11814;44.686;10.842;2022-10-15T16:18:52;23.40;75.20
23291;DHT22;11814;44.686;10.842;2022-10-15T16:21:23;23.40;75.60
23291;DHT22;11814;44.686;10.842;2022-10-15T16:23:49;23.40;75.90
23291;DHT22;11814;44.686;10.842;2022-10-15T16:26:16;23.30;76.50
23291;DHT22;11814;44.686;10.842;2022-10-15T16:28:41;23.20;77.10
23291;DHT22;11814;44.686;10.842;2022-10-15T16:31:25;23.10;77.60
23291;DHT22;11814;44.686;10.842;2022-10-15T16:33:52;23.10;78.10
23291;DHT22;11814;44.686;10.842;2022-10-15T16:36:18;23.00;78.30
23291;DHT22;11814;44.686;10.842;2022-10-15T16:38:45;22.90;78.70
23291;DHT22;11814;44.686;10.842;2022-10-15T16:41:12;22.90;78.90
23291;DHT22;11814;44.686;10.842;2022-10-15T16:43:38;22.90;79.40
23291;DHT22;11814;44.686;10.842;2022-10-15T16:46:04;22.80;79.80
23291;DHT22;11814;44.686;10.842;2022-10-15T16:48:31;22.80;80.20
23291;DHT22;11814;44.686;10.842;2022-10-15T16:51:02;22.80;80.70
23291;DHT22;11814;44.686;10.842;2022-10-15T16:53:31;22.70;81.20
23291;DHT22;11814;44.686;10.842;2022-10-15T16:56:26;22.70;81.60
23291;DHT22;11814;44.686;10.842;2022-10-15T16:58:53;22.60;82.00
23291;DHT22;11814;44.686;10.842;2022-10-15T17:01:23;22.60;82.30
23291;DHT22;11814;44.686;10.842;2022-10-15T17:03:49;22.60;82.50
23291;DHT22;11814;44.686;10.842;2022-10-15T17:06:21;22.50;82.90
23291;DHT22;11814;44.686;10.842;2022-10-15T17:08:52;22.50;83.40
23291;DHT22;11814;44.686;10.842;2022-10-15T17:11:24;22.50;83.60
23291;DHT22;11814;44.686;10.842;2022-10-15T17:13:51;22.50;84.00
23291;DHT22;11814;44.686;10.842;2022-10-15T17:16:26;22.40;84.30
23291;DHT22;11814;44.686;10.842;2022-10-15T17:18:53;22.40;84.70
23291;DHT22;11814;44.686;10.842;2022-10-15T17:21:21;22.40;85.10
23291;DHT22;11814;44.686;10.842;2022-10-15T17:23:49;22.30;85.30
23291;DHT22;11814;44.686;10.842;2022-10-15T17:26:17;22.30;85.60
23291;DHT22;11814;44.686;10.842;2022-10-15T17:28:44;22.30;86.00
23291;DHT22;11814;44.686;10.842;2022-10-15T17:31:15;22.30;86.30
23291;DHT22;11814;44.686;10.842;2022-10-15T17:33:42;22.30;86.70
23291;DHT22;11814;44.686;10.842;2022-10-15T17:36:14;22.30;87.20
23291;DHT22;11814;44.686;10.842;2022-10-15T17:38:40;22.30;87.50
23291;DHT22;11814;44.686;10.842;2022-10-15T17:41:10;22.20;87.90
23291;DHT22;11814;44.686;10.842;2022-10-15T17:43:37;22.20;88.40
23291;DHT22;11814;44.686;10.842;2022-10-15T17:46:05;22.20;88.90
23291;DHT22;11814;44.686;10.842;2022-10-15T17:48:31;22.10;89.30